Mayesville, SC (29104)

12:00 AM EST en Noviembre 29, 2014 (GMT -0500)
Dalzell,SC | Change Station
CLOSE
Current Station
Estación meteorológica personal
Location: Sumter, SC
Altura: 185 ft
Estaciones meteorológicas cercanas

Alt 185 ft 34.01 °N, 80.40 °W | Updated 3 seconds ago

Despejado
Despejado
27.9 ° F
Sensación térmica 28 ° F
N
0.0
Viento Variable Viento desde Oeste
Gusts 0.0 mph

Hoy
Alta -- | Baja -- ° F
--% Posibilidad de precipitaciones
Ayer
Alta -- | Baja -- ° F
Precip. -- pul
7:06 AM 5:11 PM
Creciente, 47% visible
Presión 30.31 pul
Visibilidad 10.0 Millas
Nubes Despejado
Vientos helados 28 ° F
Punto de rocío 26 ° F
Humedad 91%
Precipitaciones 0.00 pul
Espesor de la nieve No disponible.
UV 0 de una escala de 12
Polen .50 de una escala de 12
Calidad del aire No disponible.
Flu Activity No disponible.
METAR KSSC 290458Z AUTO 00000KT 10SM CLR 00/M02 A3030 RMK AO2 SLP264 T10041023 400881020 $

More Conditions Fewer Conditions

Presión 30.31 pul
Visibilidad 10.0 Millas
Nubes Despejado
Vientos helados 28 ° F
Punto de rocío 26 ° F
Humedad 91%
Precipitaciones 0.00 pul
Espesor de la nieve No disponible.
UV 0 de una escala de 12
Polen .50 de una escala de 12
Calidad del aire No disponible.
Flu Activity No disponible.
METAR KSSC 290458Z AUTO 00000KT 10SM CLR 00/M02 A3030 RMK AO2 SLP264 T10041023 400881020 $

More Conditions Fewer Conditions

10-Day Weather Forecast

Almanac

Astronomía

Nov. 29, 2014 Salida Puesta
Hora real
Crepúsculo civil
Crepúsculo náutico
Crepúsculo astronómico
Luna
Horas de luz
Horas de luz
Tomorrow will be .
, % of the Moon is Illuminated

Extremos de hoy

Máximos del estado Bajos del estado

Community

WunderPhotos

Upload Photos

1,774,417 ¡fotos cargadas!

WunderBlogs® & News

Nearby

Calidad del aire

  Calidad del aire Índice AQ Contaminante
Not available.

Grosos de nieve

Estación Profundido Altura

Actividad de terremotos

Ciudad Distance Mag. Tiempo y dato
Magnitud mínima muestra es 2,5.

Temperaturas de aguas costeras

Lugar Temperatura

Estaciones meteorológicas cercanas